Time;durP1;ratioP1;P1;durP2;ratioP2;P2;SDS_P1;SDS_P2;PMS_P1;PMS_P2;Temp;Humidity;BMP_temperature;BMP_pressure;BME280_temperature;BME280_humidity;BME280_pressure;Samples;Min_cycle;Max_cycle;Signal;HPM_P1;HPM_P2
2022/08/05 00:02:27;;;;;;;4.90;1.88;;;;;;;19.76;71.21;99963.81;6270799;28;20090;-71
2022/08/05 00:05:30;;;;;;;4.03;2.03;;;;;;;19.73;71.62;99954.34;6237849;28;20045;-70
2022/08/05 00:08:30;;;;;;;3.42;2.00;;;;;;;19.70;72.66;99959.94;6270802;28;20045;-70
2022/08/05 00:11:31;;;;;;;3.33;1.87;;;;;;;19.68;72.57;99959.28;6270662;28;20045;-70
2022/08/05 00:14:32;;;;;;;8.30;2.20;;;;;;;19.65;73.85;99953.44;6253616;28;20056;-70
2022/08/05 00:17:33;;;;;;;2.50;1.63;;;;;;;19.62;73.96;99957.25;6253402;28;20037;-70
2022/08/05 00:20:37;;;;;;;4.80;1.75;;;;;;;19.59;74.09;99954.06;6272260;28;20056;-74
2022/08/05 00:23:42;;;;;;;3.00;2.20;;;;;;;19.56;74.13;99951.72;6275215;28;20485;-74
2022/08/05 00:26:45;;;;;;;3.95;1.80;;;;;;;19.53;76.32;99951.03;6274958;28;20053;-73
2022/08/05 00:29:46;;;;;;;2.13;1.90;;;;;;;19.49;75.43;99949.69;6274973;28;20119;-74
2022/08/05 00:32:48;;;;;;;3.80;2.17;;;;;;;19.50;75.29;99950.53;6241661;28;20544;-74
2022/08/05 00:35:49;;;;;;;2.75;1.80;;;;;;;19.48;75.52;99953.31;6258598;28;20041;-73
2022/08/05 00:38:53;;;;;;;3.30;2.00;;;;;;;19.51;77.96;99952.19;6291681;28;20408;-74
2022/08/05 00:41:54;;;;;;;3.40;2.00;;;;;;;19.47;77.33;99950.81;6276201;28;20072;-74
2022/08/05 00:44:54;;;;;;;5.00;1.77;;;;;;;19.45;75.90;99948.31;6258230;28;20502;-74
2022/08/05 00:47:55;;;;;;;4.57;1.93;;;;;;;19.45;77.91;99950.97;6274725;28;20045;-74
2022/08/05 00:50:56;;;;;;;2.93;2.00;;;;;;;19.38;78.28;99954.41;6258018;28;20052;-74
2022/08/05 00:53:57;;;;;;;2.50;1.90;;;;;;;19.35;77.67;99952.88;6258173;28;20456;-74
2022/08/05 00:57:00;;;;;;;5.60;1.93;;;;;;;19.31;77.57;99946.22;6257906;28;20584;-73
2022/08/05 01:00:03;;;;;;;6.20;2.35;;;;;;;19.30;78.41;99941.94;6274535;28;20911;-74
2022/08/05 01:03:05;;;;;;;2.55;1.85;;;;;;;19.27;79.70;99943.06;6275491;28;20048;-73
2022/08/05 01:06:07;;;;;;;3.38;2.10;;;;;;;19.27;79.08;99947.50;6275250;28;20485;-74
2022/08/05 01:09:08;;;;;;;4.40;2.17;;;;;;;19.19;79.50;99944.78;6274171;28;20045;-74
2022/08/05 01:12:13;;;;;;;3.10;2.07;;;;;;;19.14;80.87;99942.63;6240852;28;20099;-73
2022/08/05 01:15:19;;;;;;;3.03;2.28;;;;;;;19.10;81.98;99941.25;6273988;28;20090;-73
2022/08/05 01:18:28;;;;;;;2.85;2.03;;;;;;;19.02;83.61;99936.72;6274967;28;20044;-73
2022/08/05 01:21:36;;;;;;;3.47;2.00;;;;;;;19.00;85.03;99943.97;6274966;28;20404;-74
2022/08/05 01:24:56;;;;;;;4.22;2.15;;;;;;;18.97;84.83;99948.75;6274879;28;20049;-74
2022/08/05 01:28:15;;;;;;;2.85;2.08;;;;;;;18.96;82.08;99942.59;6273797;28;20033;-73
2022/08/05 01:31:39;;;;;;;4.65;2.20;;;;;;;18.91;84.27;99940.41;6306241;28;20155;-73
2022/08/05 01:34:49;;;;;;;2.47;2.13;;;;;;;18.84;84.14;99938.50;6274591;28;20049;-73
2022/08/05 01:37:52;;;;;;;4.90;2.30;;;;;;;18.79;83.58;99943.44;6274708;28;20045;-73
2022/08/05 01:40:56;;;;;;;4.32;2.10;;;;;;;18.72;86.23;99935.25;6273303;28;20069;-73
2022/08/05 01:44:00;;;;;;;6.30;2.13;;;;;;;18.67;87.02;99933.03;6274372;28;20072;-74
2022/08/05 01:47:01;;;;;;;3.05;2.13;;;;;;;18.58;90.28;99933.94;6274239;28;20048;-74
2022/08/05 01:50:05;;;;;;;4.57;2.40;;;;;;;18.53;89.92;99936.16;6273009;28;20041;-74
2022/08/05 01:53:12;;;;;;;6.20;2.38;;;;;;;18.46;91.08;99938.56;6274179;28;20040;-73
2022/08/05 01:56:15;;;;;;;4.25;2.10;;;;;;;18.42;92.11;99939.84;6273939;28;20044;-73
2022/08/05 01:59:18;;;;;;;2.60;2.15;;;;;;;18.37;92.17;99941.28;6273429;28;20041;-73
2022/08/05 02:02:21;;;;;;;2.50;2.30;;;;;;;18.35;91.26;99932.69;6273591;28;20127;-74
2022/08/05 02:05:31;;;;;;;6.00;2.30;;;;;;;18.36;94.71;99939.63;6273874;28;20048;-74
2022/08/05 02:08:33;;;;;;;3.97;2.28;;;;;;;18.31;92.30;99943.53;6272617;28;20044;-74
2022/08/05 02:11:54;;;;;;;5.10;2.10;;;;;;;18.24;93.98;99939.81;6272514;28;20064;-74
2022/08/05 02:15:11;;;;;;;4.50;1.98;;;;;;;18.21;93.55;99928.72;6273909;28;20504;-74
2022/08/05 02:18:38;;;;;;;3.78;2.25;;;;;;;18.14;95.01;99933.75;6273587;28;20052;-74
2022/08/05 02:21:47;;;;;;;3.28;2.13;;;;;;;18.08;93.99;99921.94;6273523;28;20386;-74
2022/08/05 02:24:54;;;;;;;2.47;2.10;;;;;;;18.05;94.61;99927.50;6273478;28;20048;-73
2022/08/05 02:27:57;;;;;;;3.90;2.22;;;;;;;18.01;95.12;99922.66;6273594;28;20049;-74
2022/08/05 02:31:04;;;;;;;4.95;2.22;;;;;;;17.90;99.44;99923.69;6271914;28;20053;-74
2022/08/05 02:34:12;;;;;;;2.28;2.08;;;;;;;17.84;99.66;99916.34;6272187;28;20468;-73
2022/08/05 02:37:14;;;;;;;3.03;2.20;;;;;;;17.80;99.55;99910.47;6273234;28;20048;-74
2022/08/05 02:40:15;;;;;;;;;;;;;;;17.80;100.00;99914.94;6273374;28;20049;-73
2022/08/05 02:43:18;;;;;;;8.23;2.50;;;;;;;17.78;100.00;99909.78;6272315;28;19920;-73
2022/08/05 02:46:20;;;;;;;8.98;2.30;;;;;;;17.78;100.00;99911.59;6273079;28;20044;-73
2022/08/05 02:49:23;;;;;;;4.70;2.47;;;;;;;17.71;100.00;99911.34;6272902;28;20048;-73
2022/08/05 02:52:26;;;;;;;4.07;2.50;;;;;;;17.69;100.00;99910.66;6272740;28;20060;-73
2022/08/05 02:55:28;;;;;;;5.75;2.25;;;;;;;17.63;100.00;99909.41;6271733;28;20048;-73
2022/08/05 02:58:29;;;;;;;3.33;2.20;;;;;;;17.58;100.00;99910.81;6272789;28;20049;-73
2022/08/05 03:01:39;;;;;;;5.72;2.50;;;;;;;17.52;100.00;99912.19;6271471;28;20099;-74
2022/08/05 03:04:41;;;;;;;12.82;2.80;;;;;;;17.50;100.00;99911.50;6272640;28;20044;-73
2022/08/05 03:07:43;;;;;;;7.22;2.50;;;;;;;17.49;100.00;99917.78;6271476;28;20115;-73
2022/08/05 03:10:44;;;;;;;6.50;3.10;;;;;;;17.46;100.00;99908.34;6271510;28;20048;-73
2022/08/05 03:13:45;;;;;;;2.63;2.42;;;;;;;17.40;100.00;99908.06;6271548;28;20452;-73
2022/08/05 03:16:46;;;;;;;4.57;2.67;;;;;;;17.38;100.00;99910.84;6238533;28;20052;-73
2022/08/05 03:19:46;;;;;;;4.95;2.80;;;;;;;17.40;100.00;99903.63;6254884;28;20102;-73
2022/08/05 03:22:47;;;;;;;4.22;2.75;;;;;;;17.37;100.00;99903.91;6271301;28;20076;-73
2022/08/05 03:25:48;;;;;;;3.42;2.90;;;;;;;17.39;100.00;99909.03;6271177;28;20075;-73
2022/08/05 03:28:51;;;;;;;3.40;2.53;;;;;;;17.37;100.00;99905.72;6271209;28;20127;-73
2022/08/05 03:31:53;;;;;;;4.60;2.72;;;;;;;17.40;100.00;99905.41;6270648;28;20056;-74
2022/08/05 03:34:54;;;;;;;4.65;3.25;;;;;;;17.42;100.00;99904.34;6254398;28;20056;-73
2022/08/05 03:37:59;;;;;;;9.45;4.10;;;;;;;17.29;100.00;99906.41;6271233;28;20531;-73
2022/08/05 03:41:00;;;;;;;5.88;3.13;;;;;;;17.42;100.00;99900.84;6272235;28;20041;-73
2022/08/05 03:44:01;;;;;;;4.60;3.20;;;;;;;17.44;100.00;99898.88;6271025;28;20037;-73
2022/08/05 03:47:02;;;;;;;6.75;3.42;;;;;;;17.31;100.00;99915.84;6254464;28;20044;-74
2022/08/05 03:50:03;;;;;;;7.07;3.20;;;;;;;17.49;100.00;99913.31;6253869;28;20049;-73
2022/08/05 03:53:11;;;;;;;5.00;3.10;;;;;;;17.42;100.00;99919.31;6237386;28;20037;-73
2022/08/05 03:56:21;;;;;;;5.30;3.50;;;;;;;17.54;100.00;99912.91;6275874;28;20072;-73
2022/08/05 03:59:39;;;;;;;4.35;3.28;;;;;;;17.62;100.00;99913.00;6276002;28;20099;-74
2022/08/05 04:02:45;;;;;;;4.18;3.10;;;;;;;17.68;100.00;99917.72;6275795;28;20056;-73
2022/08/05 04:05:46;;;;;;;8.13;3.65;;;;;;;17.75;100.00;99920.66;6275716;28;20063;-74
2022/08/05 04:08:47;;;;;;;6.88;4.05;;;;;;;17.78;100.00;99912.44;6276878;28;20079;-73
2022/08/05 04:11:50;;;;;;;5.00;3.65;;;;;;;17.84;100.00;99917.16;6258732;28;20049;-74
2022/08/05 04:14:51;;;;;;;5.43;3.97;;;;;;;17.91;100.00;99922.69;6276813;28;20040;-74
2022/08/05 04:17:53;;;;;;;7.40;4.13;;;;;;;17.95;100.00;99920.59;6276736;28;20451;-73
2022/08/05 04:20:55;;;;;;;5.45;3.85;;;;;;;18.01;100.00;99923.50;6276587;28;20335;-74
2022/08/05 04:23:59;;;;;;;11.35;4.25;;;;;;;18.10;100.00;99924.44;6275386;28;20060;-74
2022/08/05 04:27:01;;;;;;;10.40;4.15;;;;;;;18.19;100.00;99926.22;6275382;28;20056;-71
2022/08/05 04:30:02;;;;;;;9.02;4.18;;;;;;;18.23;100.00;99918.84;6242462;28;20069;-71
2022/08/05 04:33:04;;;;;;;6.38;4.25;;;;;;;18.29;100.00;99926.16;6275979;28;20448;-70
2022/08/05 04:36:07;;;;;;;11.32;5.55;;;;;;;18.33;100.00;99922.25;6275152;28;20049;-70
2022/08/05 04:39:10;;;;;;;8.18;3.95;;;;;;;18.39;100.00;99924.31;6258892;28;20480;-70
2022/08/05 04:42:11;;;;;;;7.35;3.78;;;;;;;18.40;100.00;99914.56;6275018;28;20174;-71
2022/08/05 04:45:11;;;;;;;7.67;4.10;;;;;;;18.50;100.00;99921.44;6291608;28;20057;-70
2022/08/05 04:48:13;;;;;;;8.35;4.13;;;;;;;18.57;99.96;99919.03;6258128;28;20170;-70
2022/08/05 04:51:16;;;;;;;8.57;4.30;;;;;;;18.59;99.33;99925.00;6274452;28;20048;-70
2022/08/05 04:54:18;;;;;;;6.32;4.13;;;;;;;18.63;99.51;99923.72;6258326;28;20067;-71
2022/08/05 04:57:19;;;;;;;9.45;4.45;;;;;;;18.72;99.18;99917.56;6274453;28;20128;-70
2022/08/05 05:00:20;;;;;;;8.53;3.97;;;;;;;18.84;97.11;99912.94;6241569;28;20045;-70
2022/08/05 05:03:28;;;;;;;7.18;4.20;;;;;;;18.97;97.50;99920.50;6274360;28;20049;-70
2022/08/05 05:06:29;;;;;;;5.80;4.20;;;;;;;19.09;96.66;99921.91;6257022;28;20052;-73
2022/08/05 05:09:29;;;;;;;6.03;4.40;;;;;;;19.16;95.32;99918.66;6241834;28;20541;-73
2022/08/05 05:12:31;;;;;;;8.97;4.30;;;;;;;19.29;95.46;99912.00;6275281;28;20091;-73
2022/08/05 05:15:32;;;;;;;12.00;3.65;;;;;;;19.42;93.20;99919.53;6275254;28;20600;-74
2022/08/05 05:18:33;;;;;;;8.82;4.10;;;;;;;19.52;92.53;99919.47;6277952;28;20452;-73
2022/08/05 05:21:34;;;;;;;8.35;3.88;;;;;;;19.65;93.82;99919.03;6277484;28;20489;-74
2022/08/05 05:24:37;;;;;;;9.17;3.87;;;;;;;19.77;90.28;99920.47;6299231;28;20059;-74
2022/08/05 05:27:38;;;;;;;10.68;3.97;;;;;;;19.88;88.95;99914.91;6257339;28;20124;-74
2022/08/05 05:30:39;;;;;;;6.20;3.97;;;;;;;20.02;90.05;99921.44;6281155;28;20043;-74
2022/08/05 05:33:43;;;;;;;9.80;3.78;;;;;;;20.09;89.84;99917.16;6298907;28;20450;-71
2022/08/05 05:36:43;;;;;;;5.80;3.78;;;;;;;20.28;87.74;99924.03;6298891;28;20098;-71
2022/08/05 05:39:45;;;;;;;9.80;4.53;;;;;;;20.40;87.42;99926.38;6291816;28;20557;-71
2022/08/05 05:42:47;;;;;;;5.30;4.27;;;;;;;20.49;87.64;99934.22;6285802;28;20044;-70
2022/08/05 05:45:48;;;;;;;14.57;3.75;;;;;;;20.69;85.99;99928.66;6331191;28;20135;-70
2022/08/05 05:48:49;;;;;;;7.47;3.83;;;;;;;20.80;84.17;99927.53;6273894;28;20041;-70
2022/08/05 05:51:49;;;;;;;5.73;3.70;;;;;;;21.00;85.40;99928.91;6257503;28;20451;-71
2022/08/05 05:54:50;;;;;;;4.20;3.47;;;;;;;21.15;81.57;99934.38;6293873;28;20051;-71
2022/08/05 05:57:51;;;;;;;6.90;3.67;;;;;;;21.27;80.22;99934.84;6280537;28;20048;-71
2022/08/05 06:00:52;;;;;;;7.97;3.73;;;;;;;21.48;82.83;99937.88;6259857;28;20508;-71
2022/08/05 06:03:52;;;;;;;6.83;4.03;;;;;;;21.61;79.45;99932.06;6290506;28;20053;-71
2022/08/05 06:06:53;;;;;;;6.90;3.63;;;;;;;21.89;78.45;99939.66;6225344;28;20048;-71
2022/08/05 06:09:54;;;;;;;5.28;3.47;;;;;;;22.15;77.18;99939.38;6280757;28;20051;-71
2022/08/05 06:12:55;;;;;;;7.47;3.53;;;;;;;22.29;76.00;99940.53;6296824;28;20048;-71
2022/08/05 06:15:56;;;;;;;7.83;4.03;;;;;;;22.39;74.28;99940.34;6297091;28;20404;-71
2022/08/05 06:18:57;;;;;;;5.33;3.60;;;;;;;22.58;73.14;99942.56;6278179;28;20592;-71
2022/08/05 06:21:58;;;;;;;6.50;3.47;;;;;;;22.73;71.30;99943.50;6238891;28;20045;-71
2022/08/05 06:25:02;;;;;;;11.17;3.57;;;;;;;22.89;71.14;99947.03;6255064;28;20055;-71
2022/08/05 06:28:03;;;;;;;10.90;3.88;;;;;;;23.04;68.77;99947.97;6271757;28;20037;-71
2022/08/05 06:31:04;;;;;;;7.32;3.55;;;;;;;23.32;68.06;99944.75;6254983;28;20127;-71
2022/08/05 06:34:05;;;;;;;5.53;3.58;;;;;;;23.50;65.36;99949.78;6271344;28;20550;-72
2022/08/05 06:37:09;;;;;;;7.50;3.93;;;;;;;23.66;65.98;99940.78;6276105;28;20041;-71
2022/08/05 06:40:11;;;;;;;8.07;3.33;;;;;;;23.84;66.01;99946.63;6296237;28;20346;-71
2022/08/05 06:43:12;;;;;;;6.25;3.15;;;;;;;24.04;64.16;99951.44;6281283;28;20049;-72
2022/08/05 06:46:15;;;;;;;7.20;3.50;;;;;;;24.20;63.41;99953.09;6272474;28;20036;-71
2022/08/05 06:49:17;;;;;;;6.97;3.60;;;;;;;24.42;64.26;99956.63;6275224;28;20043;-71
2022/08/05 06:52:18;;;;;;;11.27;3.47;;;;;;;24.57;62.12;99957.47;6261199;28;20041;-71
2022/08/05 06:55:19;;;;;;;6.33;3.30;;;;;;;24.79;59.04;99953.00;6241545;28;20496;-71
2022/08/05 06:58:20;;;;;;;3.90;3.00;;;;;;;25.03;60.25;99953.66;6254579;28;20037;-71
2022/08/05 07:01:21;;;;;;;6.43;3.50;;;;;;;25.23;59.75;99959.22;6271723;28;20186;-71
2022/08/05 07:04:24;;;;;;;8.23;3.17;;;;;;;25.43;59.21;99948.69;6295547;28;20119;-74
2022/08/05 07:07:25;;;;;;;8.95;2.72;;;;;;;25.64;57.57;99959.34;6288008;28;20057;-74
2022/08/05 07:10:26;;;;;;;5.28;3.05;;;;;;;25.95;52.43;99954.66;6271472;28;20514;-74
2022/08/05 07:16:50;;;;;;;4.25;2.60;;;;;;;26.32;49.85;99954.25;6277276;28;20037;-74
2022/08/05 07:19:56;;;;;;;6.13;2.95;;;;;;;26.46;50.98;99955.13;6269258;28;20057;-73
2022/08/05 07:22:57;;;;;;;5.30;2.90;;;;;;;26.65;49.39;99958.94;6273048;28;20060;-74
2022/08/05 07:25:58;;;;;;;5.33;2.57;;;;;;;26.83;49.62;99961.03;6288498;28;20575;-74
2022/08/05 07:29:01;;;;;;;5.50;2.72;;;;;;;27.13;50.26;99961.50;6272904;28;20285;-75
2022/08/05 07:32:02;;;;;;;5.85;2.80;;;;;;;27.39;48.46;99959.91;6278680;28;20147;-74
2022/08/05 07:35:10;;;;;;;;;;;;;;;27.65;52.07;99960.91;6290476;28;20071;-74
2022/08/05 07:38:11;;;;;;;7.65;2.60;;;;;;;27.62;47.02;99959.47;6277009;28;19921;-74
2022/08/05 07:41:16;;;;;;;9.70;2.80;;;;;;;28.00;48.42;99956.13;6271427;28;20037;-74
2022/08/05 07:44:17;;;;;;;6.80;2.60;;;;;;;28.21;46.37;99951.53;6269983;28;20162;-74
2022/08/05 07:47:20;;;;;;;5.60;2.67;;;;;;;28.43;45.10;99957.44;6255389;28;20037;-74
2022/08/05 07:50:23;;;;;;;3.67;2.42;;;;;;;28.48;44.71;99950.41;6278696;28;20068;-74
2022/08/05 07:53:25;;;;;;;6.70;2.40;;;;;;;28.71;41.50;99951.78;6276130;28;20036;-74
2022/08/05 07:56:26;;;;;;;13.43;2.40;;;;;;;28.91;43.55;99949.81;6293552;28;20037;-74
2022/08/05 07:59:29;;;;;;;3.08;2.30;;;;;;;29.19;42.63;99956.66;6288289;28;20052;-74
2022/08/05 08:02:30;;;;;;;2.78;2.20;;;;;;;29.24;41.22;99958.69;6288277;28;20048;-74
2022/08/05 08:05:31;;;;;;;;;;;;;;;29.42;40.34;99950.69;6295230;28;20380;-73
2022/08/05 08:08:34;;;;;;;6.10;2.50;;;;;;;29.59;39.28;99950.97;6294818;28;19927;-74
2022/08/05 08:11:35;;;;;;;5.90;2.10;;;;;;;29.72;39.15;99948.16;6294850;28;20503;-74
2022/08/05 08:14:36;;;;;;;6.22;2.00;;;;;;;29.90;39.44;99950.06;6256307;28;20055;-74
2022/08/05 08:17:39;;;;;;;;;;;;;;;29.90;35.52;99944.69;6270345;28;20098;-74
2022/08/05 08:20:40;;;;;;;2.88;2.08;;;;;;;30.07;35.13;99947.59;6302990;28;19920;-74
2022/08/05 08:23:41;;;;;;;6.78;2.10;;;;;;;30.41;34.37;99944.53;6270969;28;20076;-74
2022/08/05 08:26:42;;;;;;;1.98;1.77;;;;;;;30.31;33.31;99942.38;6236761;28;20044;-74
2022/08/05 08:29:43;;;;;;;3.22;1.60;;;;;;;30.57;32.91;99948.47;6270847;28;20613;-75
2022/08/05 08:32:46;;;;;;;1.70;1.58;;;;;;;30.73;32.98;99945.97;6286097;28;20049;-74
2022/08/05 08:35:47;;;;;;;6.20;1.70;;;;;;;30.76;33.67;99955.44;6269595;28;20041;-74
2022/08/05 08:38:48;;;;;;;4.30;1.70;;;;;;;30.75;32.30;99947.63;6253272;28;20041;-74
2022/08/05 08:41:50;;;;;;;;;;;;;;;30.98;31.09;99947.72;6294509;28;20049;-74
2022/08/05 08:44:54;;;;;;;3.83;1.75;;;;;;;30.93;32.30;99939.53;6300068;28;19928;-74
2022/08/05 08:47:57;;;;;;;6.35;1.60;;;;;;;31.23;31.66;99942.13;6298859;28;20056;-74
2022/08/05 08:51:02;;;;;;;2.88;1.58;;;;;;;31.48;31.27;99931.19;6298714;28;20055;-74
2022/08/05 08:54:03;;;;;;;5.22;1.70;;;;;;;31.52;31.30;99936.91;6284513;28;20076;-74
2022/08/05 08:57:06;;;;;;;3.40;1.90;;;;;;;31.66;30.67;99932.94;6257004;28;20415;-74
2022/08/05 09:00:09;;;;;;;11.02;1.70;;;;;;;31.77;31.74;99936.66;6290757;28;20057;-74
2022/08/05 09:03:10;;;;;;;6.30;2.00;;;;;;;31.48;30.29;99933.88;6245227;28;20044;-74
2022/08/05 09:06:11;;;;;;;2.15;1.50;;;;;;;31.40;29.94;99928.81;6258681;28;20041;-74
2022/08/05 09:09:12;;;;;;;4.35;1.52;;;;;;;31.40;30.79;99928.81;6281312;28;20040;-74
2022/08/05 09:12:13;;;;;;;3.47;1.70;;;;;;;31.81;29.42;99926.22;6273436;28;20063;-71
2022/08/05 09:15:15;;;;;;;6.93;1.60;;;;;;;32.04;30.54;99915.44;6291950;28;20060;-72
2022/08/05 09:18:20;;;;;;;;;;;;;;;32.39;30.99;99910.97;6298701;28;20051;-72
2022/08/05 09:21:27;;;;;;;3.95;1.65;;;;;;;32.56;34.22;99919.19;6298067;28;20416;-71
2022/08/05 09:24:28;;;;;;;3.40;1.52;;;;;;;32.50;28.09;99907.41;6292519;28;20516;-74
2022/08/05 09:27:32;;;;;;;;;;;;;;;32.35;28.80;99909.81;6292921;28;20040;-74
2022/08/05 09:30:34;;;;;;;4.70;1.60;;;;;;;32.54;28.29;99900.50;6281177;28;20372;-74
2022/08/05 09:33:53;;;;;;;;;;;;;;;32.42;29.38;99907.81;6299215;28;20048;-74
2022/08/05 09:36:54;;;;;;;3.60;1.90;;;;;;;32.45;28.67;99893.81;6299315;28;19921;-74
2022/08/05 09:39:55;;;;;;;;;;;;;;;32.60;27.97;99904.13;6298227;28;20450;-74
2022/08/05 09:42:56;;;;;;;6.63;1.70;;;;;;;33.05;30.42;99895.13;6297631;28;19921;-74
2022/08/05 09:45:57;;;;;;;5.20;1.90;;;;;;;33.04;27.72;99897.03;6272834;28;20140;-74
2022/08/05 09:49:05;;;;;;;2.63;1.67;;;;;;;32.55;28.00;99885.13;6289790;28;20454;-74
2022/08/05 09:52:29;;;;;;;2.90;1.67;;;;;;;32.88;26.70;99893.25;6275685;28;20404;-74
2022/08/05 09:55:35;;;;;;;4.97;1.70;;;;;;;33.12;26.72;99882.31;6273549;28;20073;-74
2022/08/05 09:58:35;;;;;;;6.10;1.58;;;;;;;33.27;28.09;99887.94;6272856;28;20044;-74
2022/08/05 10:01:40;;;;;;;;;;;;;;;33.26;28.98;99882.81;6295254;28;20048;-74
2022/08/05 10:04:43;;;;;;;4.45;1.90;;;;;;;33.19;28.15;99879.44;6298390;28;20030;-74
2022/08/05 10:07:51;;;;;;;4.75;1.73;;;;;;;34.00;26.69;99874.38;6296959;28;20468;-74
2022/08/05 10:10:52;;;;;;;6.28;1.80;;;;;;;33.62;26.51;99881.44;6313841;28;20052;-74
2022/08/05 10:13:53;;;;;;;2.40;1.70;;;;;;;33.76;25.52;99886.50;6280261;28;20484;-74
2022/08/05 10:16:55;;;;;;;5.65;1.90;;;;;;;33.40;26.28;99878.69;6296756;28;20424;-72
2022/08/05 10:19:58;;;;;;;1.95;1.50;;;;;;;33.16;27.08;99875.38;6297868;28;20117;-74
2022/08/05 10:23:02;;;;;;;5.25;1.80;;;;;;;33.60;28.80;99872.72;6296780;28;20101;-74
2022/08/05 10:26:08;;;;;;;2.70;1.58;;;;;;;33.71;27.18;99871.84;6297415;28;20133;-71
2022/08/05 10:29:09;;;;;;;4.40;1.90;;;;;;;33.62;26.28;99870.63;6294915;28;20045;-72
2022/08/05 10:32:10;;;;;;;3.25;1.83;;;;;;;34.42;27.21;99867.53;6296047;28;20110;-72
2022/08/05 10:35:11;;;;;;;3.30;1.52;;;;;;;34.84;25.14;99862.25;6277713;28;20505;-72
2022/08/05 10:38:12;;;;;;;2.67;1.60;;;;;;;34.61;25.04;99857.13;6273747;28;20072;-72
2022/08/05 10:41:19;;;;;;;4.05;1.80;;;;;;;34.91;33.32;99859.31;6297334;28;20404;-71
2022/08/05 10:44:22;;;;;;;8.38;1.65;;;;;;;35.18;28.07;99856.56;6296009;28;20118;-72
2022/08/05 10:47:31;;;;;;;4.95;1.63;;;;;;;35.27;26.30;99844.16;6295547;28;20059;-72
2022/08/05 10:50:59;;;;;;;6.35;1.60;;;;;;;34.72;25.39;99845.34;6296035;28;20037;-71
2022/08/05 10:54:00;;;;;;;10.27;1.50;;;;;;;34.79;24.28;99842.44;6271181;28;20041;-71
2022/08/05 10:57:05;;;;;;;2.92;1.50;;;;;;;34.98;24.20;99837.41;6270946;28;20044;-72
2022/08/05 11:00:18;;;;;;;2.00;1.48;;;;;;;35.20;24.62;99848.16;6308145;28;20056;-71
2022/08/05 11:03:18;;;;;;;2.85;1.80;;;;;;;35.26;24.85;99845.22;6258246;28;20053;-71
2022/08/05 11:06:19;;;;;;;4.13;1.50;;;;;;;35.40;26.65;99840.16;6254213;28;20064;-71
2022/08/05 11:09:24;;;;;;;6.40;1.77;;;;;;;35.42;24.68;99839.91;6272940;28;20041;-71
2022/08/05 11:12:25;;;;;;;4.85;1.90;;;;;;;35.57;27.56;99839.97;6295406;28;20450;-71
2022/08/05 11:15:34;;;;;;;4.97;1.63;;;;;;;35.60;25.13;99836.72;6290368;28;20045;-71
2022/08/05 11:18:35;;;;;;;7.70;1.70;;;;;;;35.45;23.42;99842.88;6288060;28;20122;-74
2022/08/05 11:21:37;;;;;;;3.60;1.73;;;;;;;34.52;23.34;99835.13;6274668;28;20549;-74
2022/08/05 11:24:42;;;;;;;7.85;1.60;;;;;;;35.42;26.07;99831.75;6269595;28;20064;-74
2022/08/05 11:27:44;;;;;;;1.95;1.70;;;;;;;35.43;24.70;99836.09;6276467;28;20471;-74
2022/08/05 11:30:54;;;;;;;3.97;1.60;;;;;;;35.58;26.05;99833.44;6253578;28;20045;-74
2022/08/05 11:34:01;;;;;;;2.35;1.70;;;;;;;35.57;24.35;99823.69;6270345;28;20397;-71
2022/08/05 11:37:03;;;;;;;2.75;1.73;;;;;;;35.67;24.32;99828.38;6303112;28;20052;-71
2022/08/05 11:40:05;;;;;;;2.38;1.70;;;;;;;35.65;24.86;99827.81;6237552;28;20041;-71
2022/08/05 11:43:06;;;;;;;5.07;1.77;;;;;;;35.78;25.19;99823.78;6237382;28;20065;-71
2022/08/05 11:46:07;;;;;;;3.72;1.80;;;;;;;35.88;24.86;99821.94;6253493;28;20052;-71
2022/08/05 11:49:15;;;;;;;3.88;2.05;;;;;;;35.92;24.26;99817.59;6256443;28;20507;-71
2022/08/05 11:52:26;;;;;;;2.70;1.70;;;;;;;35.89;24.51;99820.84;6294930;28;20062;-71
2022/08/05 11:55:29;;;;;;;3.78;1.80;;;;;;;36.04;25.13;99811.94;6316799;28;20109;-71
2022/08/05 11:58:33;;;;;;;4.10;1.85;;;;;;;36.06;25.58;99825.25;6235977;28;20451;-71
2022/08/05 12:01:34;;;;;;;3.45;1.92;;;;;;;36.04;23.91;99814.66;6270561;28;20076;-71
2022/08/05 12:04:44;;;;;;;4.18;2.00;;;;;;;35.96;23.49;99811.66;6240934;28;20500;-71
2022/08/05 12:07:49;;;;;;;4.68;2.10;;;;;;;35.36;23.58;99811.94;6328352;28;20091;-73
2022/08/05 12:10:52;;;;;;;2.50;1.88;;;;;;;35.27;24.23;99821.63;6295455;28;20052;-74
2022/08/05 12:14:07;;;;;;;4.53;1.88;;;;;;;35.52;24.32;99815.50;6294627;28;20041;-73
2022/08/05 12:17:12;;;;;;;2.55;2.03;;;;;;;35.55;23.04;99808.75;6300224;28;20408;-75
2022/08/05 12:34:09;;;;;;;2.08;1.80;;;;;;;35.05;25.51;99795.47;6343848;27;20373;-70
2022/08/05 12:37:11;;;;;;;8.07;2.00;;;;;;;34.91;24.84;99795.09;6343741;28;20051;-70
2022/08/05 12:40:12;;;;;;;2.65;1.77;;;;;;;35.01;23.96;99793.53;6325530;28;20079;-70
2022/08/05 12:43:13;;;;;;;4.28;2.05;;;;;;;34.95;24.90;99797.28;6325500;28;20134;-71
2022/08/05 12:46:29;;;;;;;2.65;1.90;;;;;;;34.80;25.19;99781.72;6308799;28;20068;-70
2022/08/05 12:49:45;;;;;;;8.75;1.98;;;;;;;34.56;25.13;99778.56;6343490;28;20065;-70
2022/08/05 12:52:58;;;;;;;3.53;2.00;;;;;;;34.84;25.10;99785.53;6325097;28;20505;-70
2022/08/05 12:55:59;;;;;;;5.63;1.90;;;;;;;34.57;24.63;99780.16;6343428;28;20449;-70
2022/08/05 12:59:13;;;;;;;3.72;2.10;;;;;;;34.36;25.77;99780.00;6341937;28;20101;-70
2022/08/05 13:02:34;;;;;;;3.60;1.98;;;;;;;34.52;25.20;99783.66;6315112;28;20482;-70
2022/08/05 13:05:36;;;;;;;4.43;2.10;;;;;;;34.51;24.86;99768.47;6315269;28;20552;-72
2022/08/05 13:08:39;;;;;;;4.43;2.10;;;;;;;34.54;26.42;99767.97;6281827;28;20048;-71
2022/08/05 13:11:43;;;;;;;9.45;2.17;;;;;;;34.52;24.98;99768.22;6281343;28;20076;-70
2022/08/05 13:14:48;;;;;;;2.60;2.20;;;;;;;34.26;26.90;99760.97;6315109;28;20052;-70
2022/08/05 13:17:54;;;;;;;3.95;2.13;;;;;;;34.33;25.79;99761.56;6297829;28;20056;-71
2022/08/05 13:20:54;;;;;;;3.28;2.20;;;;;;;34.26;25.20;99756.34;6314936;28;20534;-71
2022/08/05 13:23:56;;;;;;;3.20;1.90;;;;;;;34.26;26.26;99766.38;6297984;28;20109;-74
2022/08/05 13:26:57;;;;;;;2.10;1.85;;;;;;;34.25;25.99;99760.16;6281168;28;20048;-73
2022/08/05 13:30:00;;;;;;;4.45;1.90;;;;;;;34.20;25.75;99760.09;6297600;28;20048;-74
2022/08/05 13:33:01;;;;;;;6.15;2.03;;;;;;;34.09;25.50;99761.03;6321050;28;20526;-73
2022/08/05 13:36:02;;;;;;;5.32;2.10;;;;;;;34.01;25.37;99758.81;6307538;28;20040;-70
2022/08/05 13:39:05;;;;;;;3.25;1.90;;;;;;;33.84;25.58;99757.00;6272789;28;20538;-70
2022/08/05 13:42:07;;;;;;;7.50;1.83;;;;;;;33.60;25.42;99748.31;6307415;28;20525;-71
2022/08/05 13:45:10;;;;;;;3.55;2.00;;;;;;;33.64;25.91;99749.47;6324030;28;20044;-71
2022/08/05 13:48:11;;;;;;;4.68;2.00;;;;;;;33.83;25.91;99754.56;6325040;28;20403;-74
2022/08/05 13:51:24;;;;;;;3.17;2.08;;;;;;;33.67;25.59;99748.19;6290365;28;20127;-71
2022/08/05 13:54:27;;;;;;;5.97;1.75;;;;;;;33.58;25.37;99736.13;6325169;28;20123;-71
2022/08/05 13:57:30;;;;;;;5.13;1.88;;;;;;;33.61;25.15;99733.78;6290649;28;20080;-71
2022/08/05 14:00:31;;;;;;;2.45;1.67;;;;;;;33.66;25.10;99730.31;6323603;28;20476;-70
2022/08/05 14:03:32;;;;;;;5.35;2.13;;;;;;;33.55;24.74;99732.03;6289945;28;20044;-70
2022/08/05 14:06:35;;;;;;;4.63;1.95;;;;;;;33.38;25.57;99731.28;6289758;28;20079;-71
2022/08/05 14:09:38;;;;;;;3.53;1.88;;;;;;;33.25;25.69;99722.47;6315112;28;20064;-71
2022/08/05 14:12:39;;;;;;;4.68;1.98;;;;;;;33.11;26.37;99730.16;6298287;28;20033;-71
2022/08/05 14:15:40;;;;;;;2.00;1.80;;;;;;;33.30;26.20;99722.56;6299126;28;20037;-70
2022/08/05 14:18:42;;;;;;;3.30;1.80;;;;;;;33.48;26.35;99726.00;6320781;28;20059;-70
2022/08/05 14:21:43;;;;;;;3.03;1.88;;;;;;;33.33;26.57;99719.34;6323945;28;20047;-74
2022/08/05 14:30:04;;;;;;;2.88;2.00;;;;;;;33.17;27.12;99722.91;6295975;28;20040;-74
2022/08/05 14:33:08;;;;;;;2.85;1.98;;;;;;;33.22;26.13;99720.28;6316164;28;20101;-74
2022/08/05 14:36:09;;;;;;;2.10;1.90;;;;;;;33.21;27.93;99712.44;6305721;28;20040;-74
2022/08/05 14:39:10;;;;;;;6.03;1.90;;;;;;;33.16;27.53;99710.50;6288631;28;20541;-74
2022/08/05 14:42:10;;;;;;;;;;;;;;;33.10;26.70;99706.91;6305701;28;20043;-74
2022/08/05 14:45:11;;;;;;;11.10;1.95;;;;;;;33.20;27.06;99708.09;6304143;28;19927;-71
2022/08/05 14:48:12;;;;;;;2.45;1.98;;;;;;;33.10;26.09;99701.50;6322050;28;20550;-71